sensor_id;sensor_type;location;lat;lon;timestamp;temperature;humidity
73547;SHT30;61807;48.384;-4.386;2023-07-30T00:00:11;17.79;75.23
73547;SHT30;61807;48.384;-4.386;2023-07-30T00:02:36;17.80;75.17
73547;SHT30;61807;48.384;-4.386;2023-07-30T00:05:02;17.80;75.16
73547;SHT30;61807;48.384;-4.386;2023-07-30T00:07:27;17.80;75.17
73547;SHT30;61807;48.384;-4.386;2023-07-30T00:09:52;17.82;75.22
73547;SHT30;61807;48.384;-4.386;2023-07-30T00:12:18;17.82;75.21
73547;SHT30;61807;48.384;-4.386;2023-07-30T00:14:43;17.83;75.24
73547;SHT30;61807;48.384;-4.386;2023-07-30T00:17:09;17.85;75.20
73547;SHT30;61807;48.384;-4.386;2023-07-30T00:19:34;17.83;75.22
73547;SHT30;61807;48.384;-4.386;2023-07-30T00:22:00;17.86;75.11
73547;SHT30;61807;48.384;-4.386;2023-07-30T00:24:26;17.85;75.08
73547;SHT30;61807;48.384;-4.386;2023-07-30T00:26:51;17.87;75.05
73547;SHT30;61807;48.384;-4.386;2023-07-30T00:29:17;17.87;75.03
73547;SHT30;61807;48.384;-4.386;2023-07-30T00:31:43;17.89;75.01
73547;SHT30;61807;48.384;-4.386;2023-07-30T00:34:08;17.90;74.97
73547;SHT30;61807;48.384;-4.386;2023-07-30T00:36:33;17.89;75.05
73547;SHT30;61807;48.384;-4.386;2023-07-30T00:38:59;17.90;74.97
73547;SHT30;61807;48.384;-4.386;2023-07-30T00:41:24;17.92;75.00
73547;SHT30;61807;48.384;-4.386;2023-07-30T00:43:50;17.87;75.08
73547;SHT30;61807;48.384;-4.386;2023-07-30T00:46:15;17.93;75.12
73547;SHT30;61807;48.384;-4.386;2023-07-30T00:48:41;17.89;75.10
73547;SHT30;61807;48.384;-4.386;2023-07-30T00:51:07;17.86;75.21
73547;SHT30;61807;48.384;-4.386;2023-07-30T00:53:34;17.87;75.22
73547;SHT30;61807;48.384;-4.386;2023-07-30T00:56:01;17.85;75.31
73547;SHT30;61807;48.384;-4.386;2023-07-30T00:58:27;17.85;75.30
73547;SHT30;61807;48.384;-4.386;2023-07-30T01:00:53;17.80;75.29
73547;SHT30;61807;48.384;-4.386;2023-07-30T01:03:19;17.86;75.21
73547;SHT30;61807;48.384;-4.386;2023-07-30T01:05:45;17.86;75.25
73547;SHT30;61807;48.384;-4.386;2023-07-30T01:08:11;17.86;75.20
73547;SHT30;61807;48.384;-4.386;2023-07-30T01:10:38;17.87;75.14
73547;SHT30;61807;48.384;-4.386;2023-07-30T01:13:06;17.89;75.17
73547;SHT30;61807;48.384;-4.386;2023-07-30T01:15:34;17.89;75.19
73547;SHT30;61807;48.384;-4.386;2023-07-30T01:17:59;17.93;75.25
73547;SHT30;61807;48.384;-4.386;2023-07-30T01:20:29;17.90;74.91
73547;SHT30;61807;48.384;-4.386;2023-07-30T01:22:55;17.92;75.05
73547;SHT30;61807;48.384;-4.386;2023-07-30T01:25:21;17.93;75.07
73547;SHT30;61807;48.384;-4.386;2023-07-30T01:27:52;17.94;75.11
73547;SHT30;61807;48.384;-4.386;2023-07-30T01:30:25;17.96;75.14
73547;SHT30;61807;48.384;-4.386;2023-07-30T01:32:52;17.97;75.30
73547;SHT30;61807;48.384;-4.386;2023-07-30T01:35:20;17.97;75.37
73547;SHT30;61807;48.384;-4.386;2023-07-30T01:37:48;17.97;75.43
73547;SHT30;61807;48.384;-4.386;2023-07-30T01:40:14;18.01;75.62
73547;SHT30;61807;48.384;-4.386;2023-07-30T01:42:39;17.99;75.64
73547;SHT30;61807;48.384;-4.386;2023-07-30T01:45:05;18.00;75.76
73547;SHT30;61807;48.384;-4.386;2023-07-30T01:47:31;17.99;75.70
73547;SHT30;61807;48.384;-4.386;2023-07-30T01:49:56;17.99;75.67
73547;SHT30;61807;48.384;-4.386;2023-07-30T01:52:22;18.01;75.72
73547;SHT30;61807;48.384;-4.386;2023-07-30T01:54:47;17.97;75.70
73547;SHT30;61807;48.384;-4.386;2023-07-30T01:57:12;17.99;75.78
73547;SHT30;61807;48.384;-4.386;2023-07-30T01:59:38;17.97;75.77
73547;SHT30;61807;48.384;-4.386;2023-07-30T02:02:04;17.99;75.73
73547;SHT30;61807;48.384;-4.386;2023-07-30T02:04:29;17.96;75.67
73547;SHT30;61807;48.384;-4.386;2023-07-30T02:06:55;17.94;75.61
73547;SHT30;61807;48.384;-4.386;2023-07-30T02:09:20;17.93;75.46
73547;SHT30;61807;48.384;-4.386;2023-07-30T02:11:46;17.92;75.46
73547;SHT30;61807;48.384;-4.386;2023-07-30T02:14:12;17.90;75.52
73547;SHT30;61807;48.384;-4.386;2023-07-30T02:16:37;17.92;75.53
73547;SHT30;61807;48.384;-4.386;2023-07-30T02:19:04;17.89;75.59
73547;SHT30;61807;48.384;-4.386;2023-07-30T02:21:29;17.92;75.66
73547;SHT30;61807;48.384;-4.386;2023-07-30T02:23:58;17.87;75.70
73547;SHT30;61807;48.384;-4.386;2023-07-30T02:26:24;17.89;75.66
73547;SHT30;61807;48.384;-4.386;2023-07-30T02:28:49;17.89;75.76
73547;SHT30;61807;48.384;-4.386;2023-07-30T02:31:14;17.89;75.83
73547;SHT30;61807;48.384;-4.386;2023-07-30T02:33:40;17.87;75.91
73547;SHT30;61807;48.384;-4.386;2023-07-30T02:36:05;17.87;76.06
73547;SHT30;61807;48.384;-4.386;2023-07-30T02:38:30;17.87;76.10
73547;SHT30;61807;48.384;-4.386;2023-07-30T02:40:56;17.85;76.25
73547;SHT30;61807;48.384;-4.386;2023-07-30T02:43:21;17.83;76.30
73547;SHT30;61807;48.384;-4.386;2023-07-30T02:45:47;17.80;76.38
73547;SHT30;61807;48.384;-4.386;2023-07-30T02:48:13;17.78;76.42
73547;SHT30;61807;48.384;-4.386;2023-07-30T02:50:38;17.75;76.46
73547;SHT30;61807;48.384;-4.386;2023-07-30T02:53:03;17.73;76.45
73547;SHT30;61807;48.384;-4.386;2023-07-30T02:55:29;17.72;76.41
73547;SHT30;61807;48.384;-4.386;2023-07-30T02:57:54;17.68;76.49
73547;SHT30;61807;48.384;-4.386;2023-07-30T03:00:20;17.65;76.40
73547;SHT30;61807;48.384;-4.386;2023-07-30T03:02:45;17.62;76.51
73547;SHT30;61807;48.384;-4.386;2023-07-30T03:05:11;17.58;76.46
73547;SHT30;61807;48.384;-4.386;2023-07-30T03:07:37;17.59;76.47
73547;SHT30;61807;48.384;-4.386;2023-07-30T03:10:03;17.58;76.50
73547;SHT30;61807;48.384;-4.386;2023-07-30T03:12:29;17.56;76.54
73547;SHT30;61807;48.384;-4.386;2023-07-30T03:14:54;17.52;76.54
73547;SHT30;61807;48.384;-4.386;2023-07-30T03:17:19;17.52;76.62
73547;SHT30;61807;48.384;-4.386;2023-07-30T03:19:46;17.48;76.68
73547;SHT30;61807;48.384;-4.386;2023-07-30T03:22:11;17.48;76.66
73547;SHT30;61807;48.384;-4.386;2023-07-30T03:24:37;17.46;76.67
73547;SHT30;61807;48.384;-4.386;2023-07-30T03:27:02;17.46;76.62
73547;SHT30;61807;48.384;-4.386;2023-07-30T03:29:28;17.46;76.66
73547;SHT30;61807;48.384;-4.386;2023-07-30T03:31:53;17.42;76.70
73547;SHT30;61807;48.384;-4.386;2023-07-30T03:34:19;17.41;76.67
73547;SHT30;61807;48.384;-4.386;2023-07-30T03:36:44;17.38;76.79
73547;SHT30;61807;48.384;-4.386;2023-07-30T03:39:09;17.36;76.74
73547;SHT30;61807;48.384;-4.386;2023-07-30T03:41:35;17.36;76.86
73547;SHT30;61807;48.384;-4.386;2023-07-30T03:44:01;17.31;76.92
73547;SHT30;61807;48.384;-4.386;2023-07-30T03:46:27;17.30;76.97
73547;SHT30;61807;48.384;-4.386;2023-07-30T03:48:52;17.28;77.01
73547;SHT30;61807;48.384;-4.386;2023-07-30T03:51:17;17.25;76.98
73547;SHT30;61807;48.384;-4.386;2023-07-30T03:53:43;17.25;77.06
73547;SHT30;61807;48.384;-4.386;2023-07-30T03:56:08;17.27;77.15
73547;SHT30;61807;48.384;-4.386;2023-07-30T03:58:34;17.25;77.20
73547;SHT30;61807;48.384;-4.386;2023-07-30T04:01:01;17.25;77.26
73547;SHT30;61807;48.384;-4.386;2023-07-30T04:03:26;17.30;77.31
73547;SHT30;61807;48.384;-4.386;2023-07-30T04:05:51;17.28;77.36
73547;SHT30;61807;48.384;-4.386;2023-07-30T04:08:17;17.25;77.36
73547;SHT30;61807;48.384;-4.386;2023-07-30T04:10:42;17.28;77.48
73547;SHT30;61807;48.384;-4.386;2023-07-30T04:13:08;17.30;77.52
73547;SHT30;61807;48.384;-4.386;2023-07-30T04:15:33;17.31;77.62
73547;SHT30;61807;48.384;-4.386;2023-07-30T04:17:59;17.34;77.65
73547;SHT30;61807;48.384;-4.386;2023-07-30T04:20:24;17.36;77.73
73547;SHT30;61807;48.384;-4.386;2023-07-30T04:22:50;17.39;77.76
73547;SHT30;61807;48.384;-4.386;2023-07-30T04:25:15;17.42;77.80
73547;SHT30;61807;48.384;-4.386;2023-07-30T04:27:40;17.42;77.86
73547;SHT30;61807;48.384;-4.386;2023-07-30T04:30:06;17.43;77.93
73547;SHT30;61807;48.384;-4.386;2023-07-30T04:32:32;17.42;78.04
73547;SHT30;61807;48.384;-4.386;2023-07-30T04:34:57;17.45;78.15
73547;SHT30;61807;48.384;-4.386;2023-07-30T04:37:23;17.46;78.18
73547;SHT30;61807;48.384;-4.386;2023-07-30T04:39:49;17.49;78.23
73547;SHT30;61807;48.384;-4.386;2023-07-30T04:42:14;17.52;78.28
73547;SHT30;61807;48.384;-4.386;2023-07-30T04:44:40;17.55;78.27
73547;SHT30;61807;48.384;-4.386;2023-07-30T04:47:06;17.53;78.33
73547;SHT30;61807;48.384;-4.386;2023-07-30T04:49:32;17.58;78.31
73547;SHT30;61807;48.384;-4.386;2023-07-30T04:51:57;17.63;78.34
73547;SHT30;61807;48.384;-4.386;2023-07-30T04:54:23;17.66;78.32
73547;SHT30;61807;48.384;-4.386;2023-07-30T04:56:48;17.68;78.40
73547;SHT30;61807;48.384;-4.386;2023-07-30T04:59:13;17.68;78.41
73547;SHT30;61807;48.384;-4.386;2023-07-30T05:01:39;17.68;78.41
73547;SHT30;61807;48.384;-4.386;2023-07-30T05:04:04;17.72;78.39
73547;SHT30;61807;48.384;-4.386;2023-07-30T05:06:29;17.73;78.40
73547;SHT30;61807;48.384;-4.386;2023-07-30T05:08:55;17.76;78.40
73547;SHT30;61807;48.384;-4.386;2023-07-30T05:11:20;17.79;78.45
73547;SHT30;61807;48.384;-4.386;2023-07-30T05:13:46;17.82;78.47
73547;SHT30;61807;48.384;-4.386;2023-07-30T05:16:11;17.83;78.55
73547;SHT30;61807;48.384;-4.386;2023-07-30T05:18:36;17.89;78.63
73547;SHT30;61807;48.384;-4.386;2023-07-30T05:21:02;17.90;78.69
73547;SHT30;61807;48.384;-4.386;2023-07-30T05:23:27;17.92;78.67
73547;SHT30;61807;48.384;-4.386;2023-07-30T05:25:52;17.92;78.65
73547;SHT30;61807;48.384;-4.386;2023-07-30T05:28:18;17.96;78.60
73547;SHT30;61807;48.384;-4.386;2023-07-30T05:30:43;17.97;78.60
73547;SHT30;61807;48.384;-4.386;2023-07-30T05:33:09;17.97;78.57
73547;SHT30;61807;48.384;-4.386;2023-07-30T05:35:34;17.96;78.60
73547;SHT30;61807;48.384;-4.386;2023-07-30T05:38:00;17.99;78.61
73547;SHT30;61807;48.384;-4.386;2023-07-30T05:40:25;18.00;78.66
73547;SHT30;61807;48.384;-4.386;2023-07-30T05:42:50;18.01;78.70
73547;SHT30;61807;48.384;-4.386;2023-07-30T05:45:16;18.03;78.67
73547;SHT30;61807;48.384;-4.386;2023-07-30T05:47:41;18.04;78.72
73547;SHT30;61807;48.384;-4.386;2023-07-30T05:50:07;18.07;78.61
73547;SHT30;61807;48.384;-4.386;2023-07-30T05:52:33;18.10;78.54
73547;SHT30;61807;48.384;-4.386;2023-07-30T05:54:58;18.10;78.52
73547;SHT30;61807;48.384;-4.386;2023-07-30T05:57:24;18.13;78.49
73547;SHT30;61807;48.384;-4.386;2023-07-30T05:59:49;18.14;78.46
73547;SHT30;61807;48.384;-4.386;2023-07-30T06:02:15;18.14;78.48
73547;SHT30;61807;48.384;-4.386;2023-07-30T06:04:40;18.16;78.49
73547;SHT30;61807;48.384;-4.386;2023-07-30T06:07:06;18.14;78.55
73547;SHT30;61807;48.384;-4.386;2023-07-30T06:09:31;18.17;78.61
73547;SHT30;61807;48.384;-4.386;2023-07-30T06:11:57;18.16;78.60
73547;SHT30;61807;48.384;-4.386;2023-07-30T06:14:26;18.17;78.68
73547;SHT30;61807;48.384;-4.386;2023-07-30T06:16:52;18.21;78.75
73547;SHT30;61807;48.384;-4.386;2023-07-30T06:19:18;18.24;78.74
73547;SHT30;61807;48.384;-4.386;2023-07-30T06:21:43;18.26;78.79
73547;SHT30;61807;48.384;-4.386;2023-07-30T06:24:09;18.26;78.76
73547;SHT30;61807;48.384;-4.386;2023-07-30T06:26:34;18.27;78.73
73547;SHT30;61807;48.384;-4.386;2023-07-30T06:29:00;18.28;78.73
73547;SHT30;61807;48.384;-4.386;2023-07-30T06:31:25;18.30;78.78
73547;SHT30;61807;48.384;-4.386;2023-07-30T06:33:51;18.27;78.83
73547;SHT30;61807;48.384;-4.386;2023-07-30T06:36:16;18.27;78.93
73547;SHT30;61807;48.384;-4.386;2023-07-30T06:38:41;18.27;79.18
73547;SHT30;61807;48.384;-4.386;2023-07-30T06:41:07;18.21;79.40
73547;SHT30;61807;48.384;-4.386;2023-07-30T06:43:32;18.21;79.57
73547;SHT30;61807;48.384;-4.386;2023-07-30T06:45:58;18.21;79.79
73547;SHT30;61807;48.384;-4.386;2023-07-30T06:48:23;18.18;79.84
73547;SHT30;61807;48.384;-4.386;2023-07-30T06:50:48;18.23;79.94
73547;SHT30;61807;48.384;-4.386;2023-07-30T06:53:14;18.21;80.04
73547;SHT30;61807;48.384;-4.386;2023-07-30T06:55:39;18.20;80.27
73547;SHT30;61807;48.384;-4.386;2023-07-30T06:58:05;18.20;80.44
73547;SHT30;61807;48.384;-4.386;2023-07-30T07:00:30;18.20;80.50
73547;SHT30;61807;48.384;-4.386;2023-07-30T07:02:55;18.23;80.69
73547;SHT30;61807;48.384;-4.386;2023-07-30T07:05:21;18.20;80.62
73547;SHT30;61807;48.384;-4.386;2023-07-30T07:07:47;18.18;80.64
73547;SHT30;61807;48.384;-4.386;2023-07-30T07:10:12;18.16;80.72
73547;SHT30;61807;48.384;-4.386;2023-07-30T07:12:39;18.16;80.81
73547;SHT30;61807;48.384;-4.386;2023-07-30T07:15:05;18.17;81.05
73547;SHT30;61807;48.384;-4.386;2023-07-30T07:17:31;18.18;81.12
73547;SHT30;61807;48.384;-4.386;2023-07-30T07:19:57;18.24;81.21
73547;SHT30;61807;48.384;-4.386;2023-07-30T07:22:22;18.24;81.33
73547;SHT30;61807;48.384;-4.386;2023-07-30T07:24:48;18.27;81.33
73547;SHT30;61807;48.384;-4.386;2023-07-30T07:27:13;18.28;81.49
73547;SHT30;61807;48.384;-4.386;2023-07-30T07:29:39;18.30;81.35
73547;SHT30;61807;48.384;-4.386;2023-07-30T07:32:05;18.33;81.53
73547;SHT30;61807;48.384;-4.386;2023-07-30T07:34:30;18.34;81.54
73547;SHT30;61807;48.384;-4.386;2023-07-30T07:36:56;18.40;81.60
73547;SHT30;61807;48.384;-4.386;2023-07-30T07:39:21;18.43;81.57
73547;SHT30;61807;48.384;-4.386;2023-07-30T07:41:46;18.45;81.63
73547;SHT30;61807;48.384;-4.386;2023-07-30T07:44:12;18.51;81.58
73547;SHT30;61807;48.384;-4.386;2023-07-30T07:46:37;18.52;81.58
73547;SHT30;61807;48.384;-4.386;2023-07-30T07:49:02;18.59;81.55
73547;SHT30;61807;48.384;-4.386;2023-07-30T07:51:28;18.64;81.49
73547;SHT30;61807;48.384;-4.386;2023-07-30T07:53:53;18.71;81.45
73547;SHT30;61807;48.384;-4.386;2023-07-30T07:56:19;18.82;81.45
73547;SHT30;61807;48.384;-4.386;2023-07-30T07:58:44;18.91;81.27
73547;SHT30;61807;48.384;-4.386;2023-07-30T08:01:09;18.96;81.06
73547;SHT30;61807;48.384;-4.386;2023-07-30T08:03:35;18.98;80.99
73547;SHT30;61807;48.384;-4.386;2023-07-30T08:06:00;18.99;80.84
73547;SHT30;61807;48.384;-4.386;2023-07-30T08:08:26;18.98;80.86
73547;SHT30;61807;48.384;-4.386;2023-07-30T08:10:52;18.98;80.86
73547;SHT30;61807;48.384;-4.386;2023-07-30T08:13:17;19.02;80.83
73547;SHT30;61807;48.384;-4.386;2023-07-30T08:15:42;19.03;80.81
73547;SHT30;61807;48.384;-4.386;2023-07-30T08:18:08;19.05;80.68
73547;SHT30;61807;48.384;-4.386;2023-07-30T08:20:33;19.02;80.64
73547;SHT30;61807;48.384;-4.386;2023-07-30T08:22:59;19.02;80.69
73547;SHT30;61807;48.384;-4.386;2023-07-30T08:25:24;19.05;80.65
73547;SHT30;61807;48.384;-4.386;2023-07-30T08:27:49;19.08;80.65
73547;SHT30;61807;48.384;-4.386;2023-07-30T08:30:15;19.12;80.63
73547;SHT30;61807;48.384;-4.386;2023-07-30T08:32:40;19.13;80.58
73547;SHT30;61807;48.384;-4.386;2023-07-30T08:35:08;19.16;80.58
73547;SHT30;61807;48.384;-4.386;2023-07-30T08:37:34;19.20;80.48
73547;SHT30;61807;48.384;-4.386;2023-07-30T08:39:59;19.23;80.39
73547;SHT30;61807;48.384;-4.386;2023-07-30T08:42:24;19.26;80.47
73547;SHT30;61807;48.384;-4.386;2023-07-30T08:44:50;19.30;80.52
73547;SHT30;61807;48.384;-4.386;2023-07-30T08:47:15;19.36;80.48
73547;SHT30;61807;48.384;-4.386;2023-07-30T08:49:41;19.45;80.44
73547;SHT30;61807;48.384;-4.386;2023-07-30T08:52:09;19.50;80.30
73547;SHT30;61807;48.384;-4.386;2023-07-30T08:54:36;19.49;80.21
73547;SHT30;61807;48.384;-4.386;2023-07-30T08:57:02;19.51;80.11
73547;SHT30;61807;48.384;-4.386;2023-07-30T08:59:31;19.54;80.11
73547;SHT30;61807;48.384;-4.386;2023-07-30T09:01:59;19.57;80.00
73547;SHT30;61807;48.384;-4.386;2023-07-30T09:04:25;19.60;79.96
73547;SHT30;61807;48.384;-4.386;2023-07-30T09:06:51;19.63;79.97
73547;SHT30;61807;48.384;-4.386;2023-07-30T09:09:16;19.73;79.93
73547;SHT30;61807;48.384;-4.386;2023-07-30T09:11:41;19.75;79.76
73547;SHT30;61807;48.384;-4.386;2023-07-30T09:14:07;19.79;79.64
73547;SHT30;61807;48.384;-4.386;2023-07-30T09:16:34;19.81;79.48
73547;SHT30;61807;48.384;-4.386;2023-07-30T09:18:59;19.85;79.51
73547;SHT30;61807;48.384;-4.386;2023-07-30T09:21:31;19.91;79.45
73547;SHT30;61807;48.384;-4.386;2023-07-30T09:23:57;20.01;79.27
73547;SHT30;61807;48.384;-4.386;2023-07-30T09:26:25;20.12;79.17
73547;SHT30;61807;48.384;-4.386;2023-07-30T09:28:50;20.26;79.12
73547;SHT30;61807;48.384;-4.386;2023-07-30T09:31:16;20.35;78.80
73547;SHT30;61807;48.384;-4.386;2023-07-30T09:33:41;20.36;78.57
73547;SHT30;61807;48.384;-4.386;2023-07-30T09:36:08;20.35;78.43
73547;SHT30;61807;48.384;-4.386;2023-07-30T09:38:43;20.32;78.55
73547;SHT30;61807;48.384;-4.386;2023-07-30T09:41:12;20.40;78.47
73547;SHT30;61807;48.384;-4.386;2023-07-30T09:43:38;20.42;78.41
73547;SHT30;61807;48.384;-4.386;2023-07-30T09:46:07;20.45;78.22
73547;SHT30;61807;48.384;-4.386;2023-07-30T09:48:34;20.50;78.19
73547;SHT30;61807;48.384;-4.386;2023-07-30T09:51:01;20.50;78.13
73547;SHT30;61807;48.384;-4.386;2023-07-30T09:53:32;20.49;78.08
73547;SHT30;61807;48.384;-4.386;2023-07-30T09:56:02;20.50;77.98
73547;SHT30;61807;48.384;-4.386;2023-07-30T09:58:28;20.47;77.90
73547;SHT30;61807;48.384;-4.386;2023-07-30T10:00:55;20.49;78.12
73547;SHT30;61807;48.384;-4.386;2023-07-30T10:03:23;20.49;78.03
73547;SHT30;61807;48.384;-4.386;2023-07-30T10:05:48;20.54;78.02
73547;SHT30;61807;48.384;-4.386;2023-07-30T10:08:26;20.56;77.80
73547;SHT30;61807;48.384;-4.386;2023-07-30T10:10:54;20.53;77.75
73547;SHT30;61807;48.384;-4.386;2023-07-30T10:13:20;20.52;77.83
73547;SHT30;61807;48.384;-4.386;2023-07-30T10:15:46;20.52;77.72
73547;SHT30;61807;48.384;-4.386;2023-07-30T10:18:12;20.47;77.54
73547;SHT30;61807;48.384;-4.386;2023-07-30T10:20:38;20.40;77.70
73547;SHT30;61807;48.384;-4.386;2023-07-30T10:23:04;20.36;77.78
73547;SHT30;61807;48.384;-4.386;2023-07-30T10:25:52;20.29;77.80
73547;SHT30;61807;48.384;-4.386;2023-07-30T10:30:56;20.33;77.95
73547;SHT30;61807;48.384;-4.386;2023-07-30T10:33:22;20.35;78.07
73547;SHT30;61807;48.384;-4.386;2023-07-30T10:35:47;20.35;77.90
73547;SHT30;61807;48.384;-4.386;2023-07-30T10:38:17;20.42;77.93
73547;SHT30;61807;48.384;-4.386;2023-07-30T10:41:05;20.56;77.85
73547;SHT30;61807;48.384;-4.386;2023-07-30T10:43:50;20.77;77.74
73547;SHT30;61807;48.384;-4.386;2023-07-30T10:46:17;20.91;77.60
73547;SHT30;61807;48.384;-4.386;2023-07-30T10:48:45;21.04;77.24
73547;SHT30;61807;48.384;-4.386;2023-07-30T10:51:18;21.14;76.75
73547;SHT30;61807;48.384;-4.386;2023-07-30T10:53:45;21.17;76.38
73547;SHT30;61807;48.384;-4.386;2023-07-30T10:56:12;21.20;76.30
73547;SHT30;61807;48.384;-4.386;2023-07-30T10:58:38;21.25;75.98
73547;SHT30;61807;48.384;-4.386;2023-07-30T11:01:05;21.32;76.30
73547;SHT30;61807;48.384;-4.386;2023-07-30T11:03:31;21.39;76.43
73547;SHT30;61807;48.384;-4.386;2023-07-30T11:05:57;21.49;75.70
73547;SHT30;61807;48.384;-4.386;2023-07-30T11:08:41;21.65;75.94
73547;SHT30;61807;48.384;-4.386;2023-07-30T11:11:08;21.73;75.65
73547;SHT30;61807;48.384;-4.386;2023-07-30T11:13:39;21.85;75.17
73547;SHT30;61807;48.384;-4.386;2023-07-30T11:16:06;21.92;74.95
73547;SHT30;61807;48.384;-4.386;2023-07-30T11:18:32;22.03;74.85
73547;SHT30;61807;48.384;-4.386;2023-07-30T11:21:04;22.06;74.40
73547;SHT30;61807;48.384;-4.386;2023-07-30T11:23:30;22.09;74.55
73547;SHT30;61807;48.384;-4.386;2023-07-30T11:25:55;22.11;74.76
73547;SHT30;61807;48.384;-4.386;2023-07-30T11:28:35;22.16;74.63
73547;SHT30;61807;48.384;-4.386;2023-07-30T11:31:08;22.25;74.38
73547;SHT30;61807;48.384;-4.386;2023-07-30T11:33:35;22.38;74.49
73547;SHT30;61807;48.384;-4.386;2023-07-30T11:36:02;22.50;73.26
73547;SHT30;61807;48.384;-4.386;2023-07-30T11:38:28;22.54;73.44
73547;SHT30;61807;48.384;-4.386;2023-07-30T11:40:56;22.65;73.30
73547;SHT30;61807;48.384;-4.386;2023-07-30T11:43:22;22.72;73.13
73547;SHT30;61807;48.384;-4.386;2023-07-30T11:45:48;22.78;72.78
73547;SHT30;61807;48.384;-4.386;2023-07-30T11:48:14;22.96;72.00
73547;SHT30;61807;48.384;-4.386;2023-07-30T11:50:51;23.10;71.12
73547;SHT30;61807;48.384;-4.386;2023-07-30T11:53:18;23.31;71.44
73547;SHT30;61807;48.384;-4.386;2023-07-30T11:55:44;23.50;70.20
73547;SHT30;61807;48.384;-4.386;2023-07-30T11:58:11;23.56;69.88
73547;SHT30;61807;48.384;-4.386;2023-07-30T12:00:38;23.53;68.65
73547;SHT30;61807;48.384;-4.386;2023-07-30T12:03:06;23.66;69.54
73547;SHT30;61807;48.384;-4.386;2023-07-30T12:05:37;23.74;69.06
73547;SHT30;61807;48.384;-4.386;2023-07-30T12:08:03;23.89;69.00
73547;SHT30;61807;48.384;-4.386;2023-07-30T12:10:45;23.91;68.79
73547;SHT30;61807;48.384;-4.386;2023-07-30T12:13:16;23.94;68.67
73547;SHT30;61807;48.384;-4.386;2023-07-30T12:15:52;23.94;68.73
73547;SHT30;61807;48.384;-4.386;2023-07-30T12:18:19;23.88;68.46
73547;SHT30;61807;48.384;-4.386;2023-07-30T12:20:45;23.85;68.78
73547;SHT30;61807;48.384;-4.386;2023-07-30T12:23:10;24.02;68.48
73547;SHT30;61807;48.384;-4.386;2023-07-30T12:25:35;24.12;67.72
73547;SHT30;61807;48.384;-4.386;2023-07-30T12:28:01;24.39;67.45
73547;SHT30;61807;48.384;-4.386;2023-07-30T12:30:26;24.60;66.48
73547;SHT30;61807;48.384;-4.386;2023-07-30T12:32:53;24.91;65.27
73547;SHT30;61807;48.384;-4.386;2023-07-30T12:35:18;24.98;65.23
73547;SHT30;61807;48.384;-4.386;2023-07-30T12:37:44;25.18;65.03
73547;SHT30;61807;48.384;-4.386;2023-07-30T12:40:09;25.42;65.10
73547;SHT30;61807;48.384;-4.386;2023-07-30T12:42:35;25.82;63.79
73547;SHT30;61807;48.384;-4.386;2023-07-30T12:45:00;26.07;63.34
73547;SHT30;61807;48.384;-4.386;2023-07-30T12:47:25;26.34;62.75
73547;SHT30;61807;48.384;-4.386;2023-07-30T12:49:51;26.65;62.58
73547;SHT30;61807;48.384;-4.386;2023-07-30T12:52:16;26.82;61.10
73547;SHT30;61807;48.384;-4.386;2023-07-30T12:54:41;26.68;61.98
73547;SHT30;61807;48.384;-4.386;2023-07-30T12:57:07;26.60;60.19
73547;SHT30;61807;48.384;-4.386;2023-07-30T12:59:32;26.72;60.94
73547;SHT30;61807;48.384;-4.386;2023-07-30T13:01:58;26.75;59.95
73547;SHT30;61807;48.384;-4.386;2023-07-30T13:04:24;26.72;59.90
73547;SHT30;61807;48.384;-4.386;2023-07-30T13:06:52;26.40;60.90
73547;SHT30;61807;48.384;-4.386;2023-07-30T13:09:18;26.10;61.23
73547;SHT30;61807;48.384;-4.386;2023-07-30T13:11:43;25.94;62.12
73547;SHT30;61807;48.384;-4.386;2023-07-30T13:14:08;26.09;62.09
73547;SHT30;61807;48.384;-4.386;2023-07-30T13:16:34;26.14;61.04
73547;SHT30;61807;48.384;-4.386;2023-07-30T13:18:59;26.20;61.03
73547;SHT30;61807;48.384;-4.386;2023-07-30T13:21:25;26.13;61.21
73547;SHT30;61807;48.384;-4.386;2023-07-30T13:23:50;26.21;60.81
73547;SHT30;61807;48.384;-4.386;2023-07-30T13:26:16;26.23;60.85
73547;SHT30;61807;48.384;-4.386;2023-07-30T13:28:41;26.23;60.86
73547;SHT30;61807;48.384;-4.386;2023-07-30T13:31:07;25.99;61.16
73547;SHT30;61807;48.384;-4.386;2023-07-30T13:33:32;25.68;61.58
73547;SHT30;61807;48.384;-4.386;2023-07-30T13:35:58;25.58;62.09
73547;SHT30;61807;48.384;-4.386;2023-07-30T13:38:23;25.65;61.16
73547;SHT30;61807;48.384;-4.386;2023-07-30T13:40:51;25.65;61.58
73547;SHT30;61807;48.384;-4.386;2023-07-30T13:43:25;25.63;61.43
73547;SHT30;61807;48.384;-4.386;2023-07-30T13:45:51;25.66;61.79
73547;SHT30;61807;48.384;-4.386;2023-07-30T13:48:17;25.76;61.32
73547;SHT30;61807;48.384;-4.386;2023-07-30T13:50:43;25.79;61.38
73547;SHT30;61807;48.384;-4.386;2023-07-30T13:53:08;25.92;60.78
73547;SHT30;61807;48.384;-4.386;2023-07-30T13:55:34;25.71;59.66
73547;SHT30;61807;48.384;-4.386;2023-07-30T13:57:59;25.52;61.19
73547;SHT30;61807;48.384;-4.386;2023-07-30T14:00:24;25.32;61.42
73547;SHT30;61807;48.384;-4.386;2023-07-30T14:02:50;25.21;61.07
73547;SHT30;61807;48.384;-4.386;2023-07-30T14:05:16;25.08;61.75
73547;SHT30;61807;48.384;-4.386;2023-07-30T14:07:42;24.95;62.02
73547;SHT30;61807;48.384;-4.386;2023-07-30T14:10:08;24.83;62.05
73547;SHT30;61807;48.384;-4.386;2023-07-30T14:12:34;24.60;62.15
73547;SHT30;61807;48.384;-4.386;2023-07-30T14:14:59;24.29;62.09
73547;SHT30;61807;48.384;-4.386;2023-07-30T14:17:24;23.97;62.90
73547;SHT30;61807;48.384;-4.386;2023-07-30T14:19:50;23.70;63.76
73547;SHT30;61807;48.384;-4.386;2023-07-30T14:22:15;23.56;64.20
73547;SHT30;61807;48.384;-4.386;2023-07-30T14:24:41;23.64;64.47
73547;SHT30;61807;48.384;-4.386;2023-07-30T14:27:08;23.70;64.26
73547;SHT30;61807;48.384;-4.386;2023-07-30T14:29:34;23.74;64.15
73547;SHT30;61807;48.384;-4.386;2023-07-30T14:31:59;23.93;64.42
73547;SHT30;61807;48.384;-4.386;2023-07-30T14:34:25;24.16;63.91
73547;SHT30;61807;48.384;-4.386;2023-07-30T14:36:50;24.42;62.91
73547;SHT30;61807;48.384;-4.386;2023-07-30T14:39:16;24.51;62.55
73547;SHT30;61807;48.384;-4.386;2023-07-30T14:41:41;24.46;62.80
73547;SHT30;61807;48.384;-4.386;2023-07-30T14:44:07;24.25;63.02
73547;SHT30;61807;48.384;-4.386;2023-07-30T14:46:32;24.08;63.38
73547;SHT30;61807;48.384;-4.386;2023-07-30T14:48:57;23.95;63.76
73547;SHT30;61807;48.384;-4.386;2023-07-30T14:51:23;23.77;64.01
73547;SHT30;61807;48.384;-4.386;2023-07-30T14:53:48;23.53;64.27
73547;SHT30;61807;48.384;-4.386;2023-07-30T14:56:14;23.29;64.93
73547;SHT30;61807;48.384;-4.386;2023-07-30T14:58:40;23.23;65.38
73547;SHT30;61807;48.384;-4.386;2023-07-30T15:01:06;23.15;65.54
73547;SHT30;61807;48.384;-4.386;2023-07-30T15:03:31;23.03;65.82
73547;SHT30;61807;48.384;-4.386;2023-07-30T15:05:57;22.89;65.90
73547;SHT30;61807;48.384;-4.386;2023-07-30T15:08:22;22.79;66.08
73547;SHT30;61807;48.384;-4.386;2023-07-30T15:10:48;22.71;66.49